KCHA

Chattanooga Metropolitan Airport

Airport
ICAO code
KCHA
IATA Code
CHA
Summary
ICAO Region
NAM
ICAO Territory
Location

Chattanooga, Tennessee

Serving
Chattanooga
Elevation
683 ft
Coordinates
35° 2' 7" N , 85° 12' 14" W
KCC
Metar
KCHA 181653Z 00000KT 10SM OVC015 22/17 A3012 RMK AO2 SLP194 T02220172

Description

Airport serving Chattanooga, Tennessee, USA.

Airport map

Aerial View

SKYbrary Partners:

Safety knowledge contributed by: